Victory City, Texas
Current Conditions -  °F | °C
As of 6:53 AM on Saturday 22 Nov 2014 (Local Time) from KTXK Reporting Station
Overcast Overcast  
Wind Chill: 55°   Ceiling: 3100
Heat Index: 55°   Visibility: 10mi
Dew Point: 51°   Wind: 7mph
Humidity: 86%   Direction: 130°SE
Pressure: 30.14"   Gusts: NA
Location:  33.474°N, 94.2882°W
Report Text: KTXK 221253Z 13006KT 10SM OVC031 13/11 A3014 RMK AO2 RAE1159 SLP206 P0000 T01280106
Loading
Personal Weather Stations






























Interactive Weather Map New forecast layout! Learn more

10-Day Weather Forecast

Advertisements
Track Severe Weather on mobile